Time;durP1;ratioP1;P1;durP2;ratioP2;P2;SDS_P1;SDS_P2;PMS_P1;PMS_P2;Temp;Humidity;BMP_temperature;BMP_pressure;BME280_temperature;BME280_humidity;BME280_pressure;Samples;Min_cycle;Max_cycle;Signal;HPM_P1;HPM_P2
2021/12/12 00:01:55;;;;;;;17.48;3.90;;;12.70;99.90;;;;;;6333680;22;20108;-71
2021/12/12 00:04:31;;;;;;;22.90;4.75;;;12.70;99.90;;;;;;6335676;22;19995;-70
2021/12/12 00:06:59;;;;;;;24.17;5.07;;;12.70;99.90;;;;;;6334355;22;20418;-71
2021/12/12 00:09:42;;;;;;;31.85;5.25;;;12.70;99.90;;;;;;6335212;22;20080;-70
2021/12/12 00:12:25;;;;;;;21.73;4.38;;;12.70;99.90;;;;;;6331708;22;20081;-69
2021/12/12 00:14:52;;;;;;;21.40;5.22;;;12.70;99.90;;;;;;6333860;22;20326;-70
2021/12/12 00:17:20;;;;;;;22.95;4.53;;;12.70;99.90;;;;;;6333086;22;20022;-69
2021/12/12 00:19:46;;;;;;;27.30;4.60;;;12.70;99.90;;;;;;6331969;22;20026;-70
2021/12/12 00:22:21;;;;;;;22.00;4.72;;;12.80;99.90;;;;;;6332801;22;20028;-70
2021/12/12 00:24:47;;;;;;;21.65;4.15;;;12.80;99.90;;;;;;6332404;22;20003;-70
2021/12/12 00:27:13;;;;;;;28.10;4.97;;;12.70;99.90;;;;;;6332302;22;20003;-70
2021/12/12 00:29:40;;;;;;;26.98;4.72;;;12.70;99.90;;;;;;6333784;22;19995;-70
2021/12/12 00:32:07;;;;;;;;;;;12.70;99.90;;;;;;6332214;22;20013;-68
2021/12/12 00:34:38;;;;;;;23.13;4.35;;;12.70;99.90;;;;;;6333319;22;19899;-69
2021/12/12 00:37:08;;;;;;;24.52;5.68;;;12.70;99.90;;;;;;6305336;22;20326;-70
2021/12/12 00:39:36;;;;;;;19.50;4.35;;;12.70;99.90;;;;;;6332762;22;20002;-70
2021/12/12 00:42:10;;;;;;;21.83;4.72;;;12.70;99.90;;;;;;6333032;22;20375;-69
2021/12/12 00:44:39;;;;;;;26.60;4.35;;;12.70;99.90;;;;;;6332776;22;19995;-70
2021/12/12 00:47:08;;;;;;;21.55;3.95;;;12.70;99.90;;;;;;6331006;22;19991;-69
2021/12/12 00:49:37;;;;;;;30.40;4.95;;;12.70;99.90;;;;;;6332725;22;19998;-68
2021/12/12 00:52:06;;;;;;;26.10;5.43;;;12.70;99.90;;;;;;6331553;22;20007;-68
2021/12/12 00:54:33;;;;;;;22.13;4.53;;;12.70;99.90;;;;;;6333348;22;20015;-69
2021/12/12 00:57:02;;;;;;;24.60;4.10;;;12.70;99.90;;;;;;6304679;22;19999;-70
2021/12/12 00:59:28;;;;;;;22.85;4.40;;;12.80;99.90;;;;;;6332315;22;20037;-68
2021/12/12 01:01:56;;;;;;;20.27;3.75;;;12.70;99.90;;;;;;6330371;22;20017;-70
2021/12/12 01:04:36;;;;;;;21.98;4.15;;;12.70;99.90;;;;;;6333841;22;20374;-69
2021/12/12 01:07:05;;;;;;;19.10;4.00;;;12.70;99.90;;;;;;6331386;22;20002;-69
2021/12/12 01:09:36;;;;;;;22.30;4.20;;;12.70;99.90;;;;;;6305317;22;20010;-70
2021/12/12 01:12:06;;;;;;;20.48;4.80;;;12.80;99.90;;;;;;6330686;22;20003;-70
2021/12/12 01:14:35;;;;;;;18.65;3.78;;;12.80;99.90;;;;;;6330953;22;20446;-69
2021/12/12 01:17:28;;;;;;;19.17;4.10;;;12.80;99.90;;;;;;6305437;22;20346;-69
2021/12/12 01:20:02;;;;;;;24.05;4.20;;;12.70;99.90;;;;;;6315214;22;19998;-69
2021/12/12 01:22:34;;;;;;;19.17;3.97;;;12.70;99.90;;;;;;6334044;22;20007;-70
2021/12/12 01:25:13;;;;;;;22.35;3.97;;;12.70;99.90;;;;;;6333030;22;20002;-69
2021/12/12 01:27:39;;;;;;;21.33;4.00;;;12.70;99.90;;;;;;6333997;22;20022;-70
2021/12/12 01:30:09;;;;;;;17.33;3.97;;;12.80;99.90;;;;;;6334698;22;20385;-70
2021/12/12 01:32:35;;;;;;;18.88;3.30;;;12.70;99.90;;;;;;6332549;22;19995;-68
2021/12/12 01:35:01;;;;;;;;;;;12.80;99.90;;;;;;6306638;22;20466;-69
2021/12/12 01:37:38;;;;;;;21.35;3.50;;;12.80;99.90;;;;;;6304338;22;19941;-68
2021/12/12 01:40:12;;;;;;;14.25;3.63;;;12.70;99.90;;;;;;6332342;22;20041;-68
2021/12/12 01:42:59;;;;;;;18.23;3.10;;;12.70;99.90;;;;;;6333600;22;20006;-69
2021/12/12 01:45:33;;;;;;;14.85;3.20;;;12.80;99.90;;;;;;6332990;22;20003;-68
2021/12/12 01:48:04;;;;;;;12.48;2.58;;;12.70;99.90;;;;;;6335705;22;20002;-69
2021/12/12 01:50:37;;;;;;;12.70;3.05;;;12.70;99.90;;;;;;6335371;22;20085;-69
2021/12/12 01:53:06;;;;;;;17.33;3.05;;;12.70;99.90;;;;;;6332749;22;20362;-67
2021/12/12 01:55:44;;;;;;;12.98;3.10;;;12.80;99.90;;;;;;6334725;22;20013;-68
2021/12/12 01:58:14;;;;;;;15.82;3.10;;;12.80;99.90;;;;;;6333580;22;20059;-68
2021/12/12 02:00:54;;;;;;;8.65;3.10;;;12.80;99.90;;;;;;6335254;22;20005;-68
2021/12/12 02:03:25;;;;;;;16.45;3.35;;;12.80;99.90;;;;;;6307705;22;20010;-69
2021/12/12 02:05:53;;;;;;;16.63;3.72;;;12.70;99.90;;;;;;6333442;22;20060;-70
2021/12/12 02:08:20;;;;;;;10.20;3.10;;;12.70;99.90;;;;;;6336065;22;20082;-69
2021/12/12 02:10:55;;;;;;;12.35;3.40;;;12.70;99.90;;;;;;6334198;22;20031;-68
2021/12/12 02:13:23;;;;;;;12.02;3.30;;;12.70;99.90;;;;;;6334022;22;20002;-70
2021/12/12 02:15:52;;;;;;;14.20;3.70;;;12.60;99.90;;;;;;6334468;22;20010;-69
2021/12/12 02:18:28;;;;;;;12.18;3.80;;;12.50;99.90;;;;;;6329320;22;20091;-69
2021/12/12 02:21:09;;;;;;;14.82;4.10;;;12.60;99.90;;;;;;6305902;22;20322;-69
2021/12/12 02:37:24;;;;;;;13.10;3.47;;;12.50;99.90;;;;;;6333897;22;20059;-69
2021/12/12 02:39:50;;;;;;;7.95;2.88;;;12.60;99.90;;;;;;6333029;22;19999;-69
2021/12/12 02:42:21;;;;;;;12.50;3.50;;;12.50;99.90;;;;;;6332810;22;20014;-69
2021/12/12 02:44:49;;;;;;;8.57;2.80;;;12.50;99.90;;;;;;6332808;22;20088;-68
2021/12/12 02:47:19;;;;;;;8.95;2.80;;;12.50;99.90;;;;;;6333079;22;20418;-69
2021/12/12 02:52:26;;;;;;;11.38;3.60;;;12.40;99.90;;;;;;6334921;22;20009;-68
2021/12/12 02:54:52;;;;;;;6.95;3.10;;;12.50;99.90;;;;;;6335311;22;20086;-69
2021/12/12 02:57:19;;;;;;;8.40;2.80;;;12.50;99.90;;;;;;6335236;22;20009;-67
2021/12/12 02:59:50;;;;;;;8.73;2.72;;;12.60;99.90;;;;;;6334339;22;20340;-68
2021/12/12 03:02:25;;;;;;;9.23;2.80;;;12.50;99.90;;;;;;6333649;22;20015;-68
2021/12/12 03:04:53;;;;;;;6.38;2.80;;;12.50;99.90;;;;;;6333822;22;19998;-68
2021/12/12 03:07:20;;;;;;;6.38;2.85;;;12.60;99.90;;;;;;6335741;22;20066;-69
2021/12/12 03:09:54;;;;;;;6.80;2.95;;;12.60;99.90;;;;;;6307089;22;20003;-69
2021/12/12 03:12:30;;;;;;;6.93;3.03;;;12.60;99.90;;;;;;6305414;22;20087;-68
2021/12/12 03:14:58;;;;;;;8.18;3.25;;;12.50;99.90;;;;;;6334551;22;19991;-69
2021/12/12 03:17:24;;;;;;;4.20;2.83;;;12.50;99.90;;;;;;6335411;22;20040;-69
2021/12/12 03:19:58;;;;;;;6.55;2.97;;;12.50;99.90;;;;;;6333317;22;20006;-69
2021/12/12 03:22:25;;;;;;;4.75;2.83;;;12.50;99.90;;;;;;6334631;22;20086;-69
2021/12/12 03:24:52;;;;;;;6.45;2.80;;;12.50;99.90;;;;;;6331522;22;20392;-69
2021/12/12 03:27:20;;;;;;;4.88;2.50;;;12.50;99.90;;;;;;6306947;22;20018;-68
2021/12/12 03:29:48;;;;;;;4.82;2.33;;;12.50;99.90;;;;;;6334319;22;20025;-69
2021/12/12 03:32:17;;;;;;;4.35;2.22;;;12.50;99.90;;;;;;6334402;22;20014;-69
2021/12/12 03:34:49;;;;;;;5.80;1.98;;;12.60;99.90;;;;;;6335731;22;19999;-68
2021/12/12 03:37:19;;;;;;;5.55;2.20;;;12.60;99.90;;;;;;6335065;22;20084;-68
2021/12/12 03:39:50;;;;;;;5.18;2.30;;;12.60;99.90;;;;;;6305662;22;20002;-68
2021/12/12 03:42:22;;;;;;;4.50;2.33;;;12.60;99.90;;;;;;6333747;22;20078;-70
2021/12/12 03:44:48;;;;;;;5.40;2.30;;;12.60;99.90;;;;;;6333980;22;20013;-69
2021/12/12 03:47:26;;;;;;;8.57;2.30;;;12.50;99.90;;;;;;6335401;22;20448;-68
2021/12/12 03:49:53;;;;;;;3.15;1.83;;;12.50;99.90;;;;;;6308023;22;20006;-69
2021/12/12 03:52:21;;;;;;;3.42;1.80;;;12.50;99.90;;;;;;6333706;22;20009;-68
2021/12/12 03:54:49;;;;;;;4.43;1.73;;;12.60;99.90;;;;;;6334710;22;20018;-68
2021/12/12 03:57:18;;;;;;;2.72;1.55;;;12.50;99.90;;;;;;6334511;22;20025;-68
2021/12/12 03:59:44;;;;;;;2.10;1.30;;;12.60;99.90;;;;;;6333505;22;20441;-68
2021/12/12 04:02:10;;;;;;;;;;;12.60;99.90;;;;;;6336150;22;20391;-69
2021/12/12 04:04:40;;;;;;;1.70;1.40;;;12.50;99.90;;;;;;6338318;22;19899;-68
2021/12/12 04:07:10;;;;;;;4.43;1.60;;;12.60;99.90;;;;;;6339496;22;20007;-69
2021/12/12 04:09:37;;;;;;;1.95;1.33;;;12.60;99.90;;;;;;6335861;22;20003;-69
2021/12/12 04:12:06;;;;;;;3.17;1.63;;;12.60;99.90;;;;;;6334246;22;20007;-68
2021/12/12 04:14:32;;;;;;;2.88;1.73;;;12.50;99.90;;;;;;6334577;22;20327;-69
2021/12/12 04:17:04;;;;;;;2.17;1.60;;;12.50;99.90;;;;;;6334604;22;20003;-68
2021/12/12 04:19:30;;;;;;;3.55;2.00;;;12.50;99.90;;;;;;6334383;22;20064;-69
2021/12/12 04:21:56;;;;;;;2.10;1.90;;;12.50;99.90;;;;;;6335036;22;20007;-69
2021/12/12 04:24:44;;;;;;;4.13;2.10;;;12.50;99.90;;;;;;6334483;22;20002;-70
2021/12/12 04:27:11;;;;;;;3.05;1.65;;;12.50;99.90;;;;;;6334332;22;19995;-69
2021/12/12 04:29:40;;;;;;;4.07;2.05;;;12.50;99.90;;;;;;6334431;22;20015;-68
2021/12/12 04:32:28;;;;;;;3.88;1.98;;;12.60;99.90;;;;;;6333958;22;20026;-69
2021/12/12 04:34:59;;;;;;;5.15;2.08;;;12.60;99.90;;;;;;6335060;22;20363;-68
2021/12/12 04:37:26;;;;;;;5.40;2.17;;;12.60;99.90;;;;;;6334831;22;20331;-69
2021/12/12 04:39:55;;;;;;;9.02;2.00;;;12.60;99.90;;;;;;6334218;22;20005;-69
2021/12/12 04:42:25;;;;;;;5.72;1.90;;;12.60;99.90;;;;;;6336209;22;20082;-68
2021/12/12 04:44:55;;;;;;;8.25;1.90;;;12.70;99.90;;;;;;6334902;22;19995;-68
2021/12/12 04:50:30;;;;;;;7.30;2.15;;;12.60;99.90;;;;;;6335775;22;20009;-69
2021/12/12 04:53:30;;;;;;;4.18;2.10;;;12.60;99.90;;;;;;6334506;22;20121;-69
2021/12/12 04:56:11;;;;;;;3.95;1.80;;;12.60;99.90;;;;;;6253686;22;20027;-69
2021/12/12 04:58:42;;;;;;;9.65;2.10;;;12.70;99.90;;;;;;6335344;22;20005;-70
2021/12/12 05:01:18;;;;;;;10.13;1.90;;;12.70;99.90;;;;;;6334884;22;20426;-69
2021/12/12 05:04:02;;;;;;;6.93;2.20;;;12.70;99.90;;;;;;6335308;22;20060;-70
2021/12/12 05:06:33;;;;;;;7.65;2.03;;;12.70;99.90;;;;;;6334288;22;20022;-70
2021/12/12 05:09:17;;;;;;;5.25;1.60;;;12.70;99.90;;;;;;6335276;22;20034;-70
2021/12/12 05:12:03;;;;;;;10.10;1.77;;;12.70;99.90;;;;;;6334107;22;19999;-70
2021/12/12 05:14:36;;;;;;;7.43;1.57;;;12.70;99.90;;;;;;6335353;22;19998;-69
2021/12/12 05:17:09;;;;;;;13.05;1.75;;;12.70;99.90;;;;;;6334884;22;20006;-68
2021/12/12 05:19:37;;;;;;;6.63;1.63;;;12.70;99.90;;;;;;6333344;22;20484;-68
2021/12/12 05:22:14;;;;;;;12.00;1.70;;;12.80;99.90;;;;;;6306685;22;20045;-68
2021/12/12 05:24:41;;;;;;;12.05;1.80;;;12.80;99.90;;;;;;6333061;22;20196;-67
2021/12/12 05:27:14;;;;;;;8.68;1.90;;;12.80;99.90;;;;;;6334640;22;20984;-69
2021/12/12 05:29:57;;;;;;;9.90;1.70;;;12.70;99.90;;;;;;6335384;22;20376;-69
2021/12/12 05:32:24;;;;;;;13.20;2.20;;;12.70;99.90;;;;;;6306554;22;20010;-68
2021/12/12 05:34:51;;;;;;;8.38;2.08;;;12.80;99.90;;;;;;6307931;22;20001;-68
2021/12/12 05:37:21;;;;;;;10.60;2.10;;;12.70;99.90;;;;;;6333879;22;20492;-70
2021/12/12 05:39:47;;;;;;;10.82;2.20;;;12.80;99.90;;;;;;6306870;22;20035;-69
2021/12/12 05:42:15;;;;;;;10.82;1.70;;;12.80;99.90;;;;;;6334198;22;20334;-69
2021/12/12 05:44:42;;;;;;;18.27;2.10;;;12.90;99.90;;;;;;6334002;22;19995;-68
2021/12/12 05:47:09;;;;;;;19.17;2.28;;;12.90;99.90;;;;;;6335015;22;20466;-69
2021/12/12 05:49:37;;;;;;;14.73;2.03;;;12.80;99.90;;;;;;6334174;22;20002;-69
2021/12/12 05:52:11;;;;;;;16.08;2.13;;;12.80;99.90;;;;;;6333646;22;20418;-69
2021/12/12 05:54:37;;;;;;;18.23;2.47;;;12.80;99.90;;;;;;6333920;22;20006;-69
2021/12/12 05:57:03;;;;;;;;;;;12.80;99.90;;;;;;6335159;22;20086;-69
2021/12/12 05:59:30;;;;;;;14.53;2.27;;;12.80;99.90;;;;;;6332885;22;19974;-69
2021/12/12 06:01:58;;;;;;;21.23;2.20;;;12.80;99.90;;;;;;6306529;22;20254;-69
2021/12/12 06:04:24;;;;;;;23.92;2.58;;;12.80;99.90;;;;;;6334522;22;20070;-68
2021/12/12 06:06:51;;;;;;;20.17;1.98;;;12.80;99.90;;;;;;6331230;22;20379;-68
2021/12/12 06:09:20;;;;;;;20.08;2.17;;;12.80;99.90;;;;;;6334459;22;19999;-69
2021/12/12 06:11:49;;;;;;;12.75;2.30;;;12.80;99.90;;;;;;6333306;22;20006;-69
2021/12/12 06:14:16;;;;;;;18.05;2.28;;;12.90;99.90;;;;;;6333456;22;20006;-68
2021/12/12 06:16:45;;;;;;;21.05;2.72;;;12.90;99.90;;;;;;6334724;22;19995;-67
2021/12/12 06:19:23;;;;;;;23.35;2.95;;;12.90;99.90;;;;;;6333375;22;20002;-70
2021/12/12 06:21:57;;;;;;;23.38;2.38;;;13.00;99.90;;;;;;6334252;22;20011;-70
2021/12/12 06:24:25;;;;;;;13.98;2.20;;;12.90;99.90;;;;;;6333526;22;20330;-70
2021/12/12 06:26:53;;;;;;;21.92;2.28;;;13.00;99.90;;;;;;6334372;22;19999;-69
2021/12/12 06:29:20;;;;;;;22.55;2.67;;;13.10;99.90;;;;;;6336072;22;20076;-69
2021/12/12 06:31:49;;;;;;;32.30;3.33;;;13.10;99.90;;;;;;6335112;22;20091;-68
2021/12/12 06:34:16;;;;;;;16.08;2.45;;;13.10;99.90;;;;;;6308597;22;20078;-69
2021/12/12 06:36:42;;;;;;;;;;;13.20;99.90;;;;;;6336874;22;20607;-68
2021/12/12 06:39:10;;;;;;;22.73;2.78;;;13.20;99.90;;;;;;6334406;22;20293;-68
2021/12/12 06:41:36;;;;;;;15.32;2.10;;;13.20;99.90;;;;;;6335329;22;19998;-67
2021/12/12 06:44:07;;;;;;;18.63;3.03;;;13.20;99.90;;;;;;6335713;22;19995;-69
2021/12/12 06:46:34;;;;;;;23.90;2.72;;;13.30;99.90;;;;;;6334831;22;20078;-68
2021/12/12 06:49:02;;;;;;;25.95;2.58;;;13.30;99.90;;;;;;6336214;22;20049;-68
2021/12/12 06:51:28;;;;;;;26.25;2.50;;;13.30;99.90;;;;;;6334151;22;19995;-69
2021/12/12 06:53:55;;;;;;;13.07;2.05;;;13.30;99.90;;;;;;6335792;22;20014;-69
2021/12/12 06:56:22;;;;;;;18.55;2.40;;;13.30;99.90;;;;;;6334822;22;19998;-68
2021/12/12 06:58:50;;;;;;;22.02;2.97;;;13.30;99.90;;;;;;6335803;22;20030;-69
2021/12/12 07:01:20;;;;;;;21.20;2.55;;;13.30;99.90;;;;;;6335623;22;20006;-69
2021/12/12 07:03:47;;;;;;;14.35;2.10;;;13.20;99.90;;;;;;6308544;22;20041;-69
2021/12/12 07:06:17;;;;;;;18.17;2.10;;;13.10;99.90;;;;;;6334622;22;20377;-69
2021/12/12 07:08:43;;;;;;;16.50;1.95;;;13.20;99.90;;;;;;6335452;22;20081;-70
2021/12/12 07:11:09;;;;;;;17.77;1.83;;;13.20;99.90;;;;;;6335817;22;20009;-69
2021/12/12 07:13:35;;;;;;;19.02;2.03;;;13.20;99.90;;;;;;6334477;22;20434;-69
2021/12/12 07:16:05;;;;;;;18.80;2.05;;;13.20;99.90;;;;;;6334858;22;20026;-69
2021/12/12 07:18:33;;;;;;;15.25;2.40;;;13.20;99.90;;;;;;6334190;22;20088;-69
2021/12/12 07:21:03;;;;;;;20.25;2.38;;;13.30;99.90;;;;;;6336295;22;19998;-69
2021/12/12 07:23:29;;;;;;;16.73;1.95;;;13.20;99.90;;;;;;6335701;22;20003;-69
2021/12/12 07:25:59;;;;;;;12.80;1.98;;;13.20;99.90;;;;;;6332414;22;20006;-68
2021/12/12 07:28:26;;;;;;;19.67;1.98;;;13.30;99.90;;;;;;6335492;22;20035;-68
2021/12/12 07:30:52;;;;;;;14.63;1.92;;;13.20;99.90;;;;;;6334427;22;20342;-68
2021/12/12 07:33:19;;;;;;;11.18;2.50;;;13.20;99.90;;;;;;6333150;22;20011;-69
2021/12/12 07:35:48;;;;;;;18.63;1.92;;;13.20;99.90;;;;;;6335402;22;20023;-70
2021/12/12 07:38:16;;;;;;;13.05;2.08;;;13.20;99.90;;;;;;6332614;22;20002;-70
2021/12/12 07:40:45;;;;;;;19.45;2.53;;;13.20;99.90;;;;;;6335132;22;20343;-69
2021/12/12 07:43:11;;;;;;;18.17;2.40;;;13.20;99.90;;;;;;6333824;22;19999;-69
2021/12/12 07:45:38;;;;;;;14.40;2.20;;;13.10;99.90;;;;;;6333117;22;20373;-69
2021/12/12 07:48:08;;;;;;;12.40;2.05;;;13.10;99.90;;;;;;6334852;22;20002;-69
2021/12/12 07:50:34;;;;;;;14.18;2.42;;;13.10;99.90;;;;;;6335048;22;20003;-69
2021/12/12 07:53:00;;;;;;;16.63;2.03;;;13.10;99.90;;;;;;6333331;22;20453;-69
2021/12/12 07:55:26;;;;;;;23.85;2.90;;;13.10;99.90;;;;;;6335846;22;20018;-69
2021/12/12 07:57:52;;;;;;;;;;;13.10;99.90;;;;;;6308683;22;20002;-69
2021/12/12 08:00:21;;;;;;;10.73;2.30;;;13.10;99.90;;;;;;6334604;22;19899;-69
2021/12/12 08:02:49;;;;;;;17.80;2.28;;;13.10;99.90;;;;;;6336223;22;20003;-69
2021/12/12 08:05:17;;;;;;;22.90;3.03;;;13.10;99.90;;;;;;6306684;22;20434;-68
2021/12/12 08:07:43;;;;;;;18.45;2.38;;;13.10;99.90;;;;;;6335298;22;19991;-68
2021/12/12 08:10:12;;;;;;;20.48;2.55;;;13.10;99.90;;;;;;6335220;22;19994;-68
2021/12/12 08:12:38;;;;;;;17.55;2.17;;;13.10;99.90;;;;;;6333779;22;19995;-69
2021/12/12 08:15:09;;;;;;;13.05;2.17;;;13.10;99.90;;;;;;6334267;22;19999;-69
2021/12/12 08:17:35;;;;;;;22.10;2.42;;;13.10;99.90;;;;;;6307347;22;20010;-69
2021/12/12 08:20:04;;;;;;;15.60;2.13;;;13.10;99.90;;;;;;6331498;22;20856;-69
2021/12/12 08:22:30;;;;;;;20.13;2.80;;;13.10;99.90;;;;;;6334584;22;20007;-69
2021/12/12 08:24:59;;;;;;;;;;;13.10;99.90;;;;;;6333250;22;19991;-69
2021/12/12 08:27:27;;;;;;;18.48;2.40;;;13.10;99.90;;;;;;6307659;22;19903;-70
2021/12/12 08:29:54;;;;;;;17.95;3.47;;;13.10;99.90;;;;;;6333889;22;20073;-68
2021/12/12 08:32:20;;;;;;;19.02;2.58;;;13.20;99.90;;;;;;6332545;22;20078;-70
2021/12/12 08:34:46;;;;;;;18.33;2.33;;;13.20;99.90;;;;;;6333406;22;20022;-68
2021/12/12 08:37:13;;;;;;;10.80;2.13;;;13.20;99.90;;;;;;6334234;22;20002;-70
2021/12/12 08:39:39;;;;;;;16.60;2.17;;;13.20;99.90;;;;;;6333360;22;20030;-68
2021/12/12 08:42:06;;;;;;;21.10;1.90;;;13.20;99.90;;;;;;6334496;22;20441;-69
2021/12/12 08:44:34;;;;;;;21.83;2.95;;;13.20;99.90;;;;;;6332893;22;20006;-69
2021/12/12 08:47:01;;;;;;;20.98;2.60;;;13.20;99.90;;;;;;6332069;22;19999;-70
2021/12/12 08:49:30;;;;;;;20.77;2.80;;;13.20;99.90;;;;;;6334519;22;20048;-70
2021/12/12 08:52:00;;;;;;;19.88;2.55;;;13.20;99.90;;;;;;6303707;22;19998;-69
2021/12/12 08:54:30;;;;;;;18.15;2.40;;;13.20;99.90;;;;;;6307931;22;20346;-69
2021/12/12 08:57:05;;;;;;;18.63;2.45;;;13.20;99.90;;;;;;6334769;22;19999;-68
2021/12/12 08:59:34;;;;;;;25.13;3.10;;;13.20;99.90;;;;;;6333053;22;20002;-68
2021/12/12 09:02:04;;;;;;;18.90;2.47;;;13.20;99.90;;;;;;6332437;22;20010;-68
2021/12/12 09:04:34;;;;;;;15.55;2.55;;;13.10;99.90;;;;;;6304291;22;20039;-69
2021/12/12 09:07:10;;;;;;;14.40;2.85;;;13.10;99.90;;;;;;6331654;22;20002;-70
2021/12/12 09:10:07;;;;;;;17.70;2.50;;;13.10;99.90;;;;;;6332077;22;19999;-69
2021/12/12 09:12:40;;;;;;;12.18;2.17;;;13.00;99.90;;;;;;6330502;22;20014;-69
2021/12/12 09:15:19;;;;;;;20.20;2.90;;;13.10;99.90;;;;;;6332777;22;19998;-69
2021/12/12 09:17:49;;;;;;;24.90;2.70;;;13.10;99.90;;;;;;6333827;22;19995;-69
2021/12/12 09:20:26;;;;;;;22.73;3.38;;;13.10;99.90;;;;;;6329376;22;20006;-69
2021/12/12 09:23:09;;;;;;;19.35;3.25;;;13.10;99.90;;;;;;6303926;22;20085;-70
2021/12/12 09:25:49;;;;;;;18.55;2.60;;;13.20;99.90;;;;;;6331788;22;20308;-69
2021/12/12 09:28:28;;;;;;;21.90;3.17;;;13.20;99.90;;;;;;6334297;22;20078;-69
2021/12/12 09:30:56;;;;;;;23.88;2.50;;;13.20;99.90;;;;;;6332165;22;20006;-69
2021/12/12 09:33:29;;;;;;;17.63;2.47;;;13.20;99.90;;;;;;6333941;22;20010;-70
2021/12/12 09:36:12;;;;;;;18.17;2.63;;;13.20;99.90;;;;;;6331518;22;19995;-70
2021/12/12 09:38:43;;;;;;;19.15;2.63;;;13.30;99.90;;;;;;6333138;22;19999;-70
2021/12/12 09:41:23;;;;;;;20.67;2.33;;;13.30;99.90;;;;;;6305362;22;20349;-71
2021/12/12 09:43:54;;;;;;;18.73;3.05;;;13.40;99.90;;;;;;6333787;22;20017;-70
2021/12/12 09:46:57;;;;;;;15.25;2.65;;;13.40;99.90;;;;;;6331862;22;19994;-69
2021/12/12 09:52:13;;;;;;;19.58;3.17;;;13.40;99.90;;;;;;6331449;22;20437;-68
2021/12/12 09:54:54;;;;;;;20.42;2.80;;;13.40;99.90;;;;;;6304631;22;20026;-69
2021/12/12 09:57:33;;;;;;;24.48;3.53;;;13.50;99.90;;;;;;6335457;22;20020;-68
2021/12/12 10:00:14;;;;;;;19.92;3.60;;;13.50;99.90;;;;;;6334048;22;20080;-70
2021/12/12 10:03:05;;;;;;;17.88;2.67;;;13.60;99.90;;;;;;6336008;22;20085;-70
2021/12/12 10:05:56;;;;;;;16.73;2.50;;;13.60;99.90;;;;;;6335264;22;19998;-70
2021/12/12 10:08:42;;;;;;;21.38;2.60;;;13.60;99.90;;;;;;6336867;22;20058;-70
2021/12/12 10:11:10;;;;;;;23.27;2.65;;;13.50;99.90;;;;;;6336495;22;20077;-70
2021/12/12 10:13:47;;;;;;;11.57;2.15;;;13.60;99.90;;;;;;6335746;22;20002;-69
2021/12/12 10:16:22;;;;;;;12.43;2.00;;;13.60;99.90;;;;;;6337118;22;20030;-69
2021/12/12 10:18:48;;;;;;;13.35;2.35;;;13.50;99.90;;;;;;6307261;22;20036;-70
2021/12/12 10:21:28;;;;;;;14.40;2.17;;;13.50;99.90;;;;;;6337073;22;20425;-71
2021/12/12 10:24:31;;;;;;;13.75;2.70;;;13.50;99.90;;;;;;6335962;22;20014;-70
2021/12/12 10:27:03;;;;;;;18.25;3.03;;;13.50;99.90;;;;;;6335121;22;20002;-70
2021/12/12 10:29:37;;;;;;;15.98;2.60;;;13.50;99.90;;;;;;6335579;22;20012;-70
2021/12/12 10:32:20;;;;;;;24.17;2.80;;;13.50;99.90;;;;;;6334781;22;20277;-71
2021/12/12 10:34:52;;;;;;;21.00;2.75;;;13.50;99.90;;;;;;6335005;22;20003;-70
2021/12/12 10:37:23;;;;;;;18.08;2.83;;;13.50;99.90;;;;;;6336958;22;20002;-70
2021/12/12 10:39:57;;;;;;;11.48;2.35;;;13.60;99.90;;;;;;6305130;22;20086;-71
2021/12/12 10:42:29;;;;;;;14.80;2.80;;;13.60;99.90;;;;;;6336234;22;20473;-71
2021/12/12 10:45:00;;;;;;;13.98;2.50;;;13.60;99.90;;;;;;6335212;22;20007;-70
2021/12/12 10:47:37;;;;;;;13.13;2.45;;;13.50;99.90;;;;;;6335861;22;20019;-70
2021/12/12 10:50:10;;;;;;;10.15;2.20;;;13.40;99.90;;;;;;6335457;22;20081;-70
2021/12/12 10:53:09;;;;;;;17.38;3.10;;;13.30;99.90;;;;;;6335216;22;20023;-69
2021/12/12 10:55:45;;;;;;;17.30;2.95;;;13.20;99.90;;;;;;6334775;22;20011;-70
2021/12/12 10:58:23;;;;;;;16.30;3.00;;;13.20;99.90;;;;;;6335455;22;19999;-70
2021/12/12 11:00:54;;;;;;;20.77;3.45;;;13.20;99.90;;;;;;6334774;22;20026;-70
2021/12/12 11:03:30;;;;;;;20.75;4.47;;;13.20;99.90;;;;;;6335764;22;20007;-71
2021/12/12 11:06:04;;;;;;;16.93;3.77;;;13.20;99.90;;;;;;6334681;22;20013;-70
2021/12/12 11:09:08;;;;;;;25.30;3.75;;;13.30;99.90;;;;;;6335616;22;20247;-70
2021/12/12 11:11:40;;;;;;;25.92;4.65;;;13.40;99.90;;;;;;6254062;22;20064;-70
2021/12/12 11:14:16;;;;;;;22.63;3.63;;;13.40;99.90;;;;;;6334185;22;20010;-70
2021/12/12 11:16:53;;;;;;;17.65;3.75;;;13.50;99.90;;;;;;6330273;22;20418;-71
2021/12/12 11:19:48;;;;;;;20.02;3.85;;;13.60;99.90;;;;;;6329642;22;20002;-71
2021/12/12 11:22:21;;;;;;;28.85;3.80;;;13.70;99.90;;;;;;6332792;22;20065;-71
2021/12/12 11:24:56;;;;;;;19.77;3.55;;;13.80;99.90;;;;;;6331195;22;20059;-72
2021/12/12 11:27:42;;;;;;;22.42;3.28;;;13.80;99.90;;;;;;6329987;22;20034;-71
2021/12/12 11:30:08;;;;;;;21.87;3.40;;;14.00;99.90;;;;;;6329027;22;20163;-69
2021/12/12 11:32:35;;;;;;;15.68;2.20;;;14.00;99.90;;;;;;6330568;22;20034;-70
2021/12/12 11:35:03;;;;;;;21.33;3.10;;;14.10;99.90;;;;;;6331463;22;20498;-74
2021/12/12 11:37:50;;;;;;;15.18;2.50;;;14.10;99.90;;;;;;6330774;22;20387;-70
2021/12/12 11:40:22;;;;;;;;;;;14.20;99.90;;;;;;6328378;22;20414;-70
2021/12/12 11:42:53;;;;;;;8.18;1.70;;;14.20;99.90;;;;;;6329410;22;19921;-70
2021/12/12 11:45:32;;;;;;;9.35;1.90;;;14.30;99.90;;;;;;6328218;22;20006;-71
2021/12/12 11:48:12;;;;;;;12.70;1.77;;;14.40;99.90;;;;;;6301889;22;19999;-70
2021/12/12 11:51:14;;;;;;;8.02;1.80;;;14.50;99.90;;;;;;6334853;22;20063;-69
2021/12/12 11:53:59;;;;;;;8.38;1.70;;;14.50;99.90;;;;;;6300717;22;20023;-70
2021/12/12 11:56:30;;;;;;;8.27;1.60;;;14.50;99.90;;;;;;6301622;22;20030;-70
2021/12/12 11:59:05;;;;;;;8.30;1.50;;;14.50;99.90;;;;;;6327179;22;20033;-70
2021/12/12 12:02:17;;;;;;;6.43;1.20;;;14.50;99.90;;;;;;6303229;22;20052;-70
2021/12/12 12:04:58;;;;;;;7.18;1.65;;;14.50;99.90;;;;;;6296668;22;20082;-68
2021/12/12 12:07:42;;;;;;;8.20;1.60;;;14.50;99.90;;;;;;6330478;22;19999;-70
2021/12/12 12:10:28;;;;;;;5.85;1.20;;;14.40;99.90;;;;;;6304675;22;20052;-69
2021/12/12 12:13:20;;;;;;;9.55;1.35;;;14.40;99.90;;;;;;6331528;22;20017;-69
2021/12/12 12:16:05;;;;;;;3.58;0.90;;;14.30;99.90;;;;;;6333496;22;20445;-69
2021/12/12 12:19:11;;;;;;;6.45;1.10;;;14.40;99.90;;;;;;6328300;22;20021;-70
2021/12/12 12:22:05;;;;;;;5.65;1.27;;;14.50;99.90;;;;;;6255633;22;20081;-70
2021/12/12 12:24:43;;;;;;;7.10;1.30;;;14.60;99.90;;;;;;6306103;22;20021;-71
2021/12/12 12:27:17;;;;;;;3.53;1.00;;;14.60;99.90;;;;;;6333984;22;20003;-70
2021/12/12 12:30:17;;;;;;;6.63;1.15;;;14.50;99.90;;;;;;6332775;22;20115;-70
2021/12/12 12:33:17;;;;;;;4.85;1.20;;;14.40;99.90;;;;;;6305763;22;19999;-72
2021/12/12 12:36:10;;;;;;;4.65;1.20;;;14.40;99.90;;;;;;6332772;22;20074;-70
2021/12/12 12:39:12;;;;;;;2.78;0.95;;;14.40;99.90;;;;;;6333989;22;20003;-69
2021/12/12 12:42:15;;;;;;;5.60;1.40;;;14.30;99.90;;;;;;6334529;22;20082;-69
2021/12/12 12:45:19;;;;;;;4.28;1.23;;;14.40;99.90;;;;;;6334221;22;20275;-69
2021/12/12 12:48:13;;;;;;;4.82;1.30;;;14.30;99.90;;;;;;6334865;22;20001;-71
2021/12/12 12:51:01;;;;;;;4.15;0.95;;;14.30;99.90;;;;;;6332377;22;19998;-73
2021/12/12 12:54:01;;;;;;;5.13;1.20;;;14.20;99.90;;;;;;6332632;22;20024;-75
2021/12/12 12:57:09;;;;;;;7.93;1.45;;;14.10;99.90;;;;;;6333615;22;19995;-72
2021/12/12 13:00:08;;;;;;;4.57;1.20;;;14.00;99.90;;;;;;6333984;22;20006;-73
2021/12/12 13:03:02;;;;;;;12.15;1.75;;;13.80;99.90;;;;;;6304993;22;20007;-71
2021/12/12 13:05:40;;;;;;;4.05;1.33;;;13.80;99.90;;;;;;6330907;22;20018;-71
2021/12/12 13:08:44;;;;;;;7.82;1.90;;;13.80;99.90;;;;;;6333420;22;20003;-70
2021/12/12 13:11:13;;;;;;;8.48;1.75;;;13.90;99.90;;;;;;6332032;22;20095;-70
2021/12/12 13:13:52;;;;;;;7.82;1.10;;;13.90;99.90;;;;;;6332032;22;19998;-70
2021/12/12 13:16:37;;;;;;;6.18;1.60;;;14.00;99.90;;;;;;6332050;22;20006;-71
2021/12/12 13:19:11;;;;;;;6.40;1.38;;;14.00;99.90;;;;;;6330888;22;20089;-70
2021/12/12 13:22:03;;;;;;;6.00;1.25;;;14.10;99.90;;;;;;6331849;22;20085;-70
2021/12/12 13:24:53;;;;;;;6.55;1.50;;;14.00;99.90;;;;;;6304254;22;20089;-70
2021/12/12 13:27:51;;;;;;;9.02;1.60;;;13.90;99.90;;;;;;6303408;22;20063;-72
2021/12/12 13:30:28;;;;;;;9.38;1.80;;;14.00;99.90;;;;;;6304901;22;20076;-70
2021/12/12 13:33:18;;;;;;;10.38;2.15;;;14.10;99.90;;;;;;6332020;22;20002;-72
2021/12/12 13:36:08;;;;;;;10.07;1.70;;;14.20;99.90;;;;;;6332432;22;20365;-71
2021/12/12 13:39:15;;;;;;;9.40;2.20;;;14.40;99.90;;;;;;6330741;22;19998;-72
2021/12/12 13:41:50;;;;;;;8.48;1.80;;;14.30;99.90;;;;;;6333984;22;20002;-71